Jacksonboro, South Carolina
Current Conditions -  °F | °C
As of 12:55 PM on Thursday 30 Oct 2014 (Local Time) from KRBW Reporting Station
Clear Clear  
Wind Chill: 70°   Ceiling: Unl
Heat Index: 70°   Visibility: 10mi
Dew Point: 46°   Wind: 9mph
Humidity: 43%   Direction: 10°N
Pressure: 29.99"   Gusts: NA
Location:  32.77°N, 80.45°W
Report Text: KRBW 301655Z AUTO 01008KT 310V050 10SM CLR 21/08 A2999 RMK AO2
Loading
Personal Weather Stations






























Interactive Weather Map New forecast layout! Learn more

10-Day Weather Forecast

Advertisements
Track Severe Weather on mobile